sensor_id;sensor_type;location;lat;lon;timestamp;pressure;altitude;pressure_sealevel;temperature;humidity
30302;BME280;17111;52.130;5.028;2024-01-11T00:01:51;103446.16;;;13.34;45.04
30302;BME280;17111;52.130;5.028;2024-01-11T00:04:17;103448.78;;;13.36;44.73
30302;BME280;17111;52.130;5.028;2024-01-11T00:06:44;103444.22;;;13.39;44.69
30302;BME280;17111;52.130;5.028;2024-01-11T00:09:11;103433.38;;;13.44;44.95
30302;BME280;17111;52.130;5.028;2024-01-11T00:11:38;103444.59;;;13.52;44.68
30302;BME280;17111;52.130;5.028;2024-01-11T00:14:05;103442.50;;;13.60;44.52
30302;BME280;17111;52.130;5.028;2024-01-11T00:16:31;103444.72;;;13.71;44.48
30302;BME280;17111;52.130;5.028;2024-01-11T00:18:58;103454.00;;;13.82;44.35
30302;BME280;17111;52.130;5.028;2024-01-11T00:21:25;103450.91;;;13.93;44.14
30302;BME280;17111;52.130;5.028;2024-01-11T00:23:52;103439.81;;;14.04;44.14
30302;BME280;17111;52.130;5.028;2024-01-11T00:26:18;103442.16;;;14.12;43.17
30302;BME280;17111;52.130;5.028;2024-01-11T00:28:45;103439.09;;;14.21;43.61
30302;BME280;17111;52.130;5.028;2024-01-11T00:31:12;103433.50;;;14.27;43.56
30302;BME280;17111;52.130;5.028;2024-01-11T00:33:39;103435.09;;;14.31;43.04
30302;BME280;17111;52.130;5.028;2024-01-11T00:36:05;103436.84;;;14.32;43.66
30302;BME280;17111;52.130;5.028;2024-01-11T00:38:32;103429.75;;;14.31;43.71
30302;BME280;17111;52.130;5.028;2024-01-11T00:40:58;103439.56;;;14.30;43.14
30302;BME280;17111;52.130;5.028;2024-01-11T00:43:25;103436.84;;;14.32;43.32
30302;BME280;17111;52.130;5.028;2024-01-11T00:45:52;103436.00;;;14.31;43.08
30302;BME280;17111;52.130;5.028;2024-01-11T00:48:18;103438.66;;;14.31;43.06
30302;BME280;17111;52.130;5.028;2024-01-11T00:50:45;103440.38;;;14.32;43.48
30302;BME280;17111;52.130;5.028;2024-01-11T00:53:12;103442.94;;;14.36;43.21
30302;BME280;17111;52.130;5.028;2024-01-11T00:55:41;103441.03;;;14.38;42.81
30302;BME280;17111;52.130;5.028;2024-01-11T00:58:07;103436.56;;;14.38;42.91
30302;BME280;17111;52.130;5.028;2024-01-11T01:00:34;103432.19;;;14.37;43.37
30302;BME280;17111;52.130;5.028;2024-01-11T01:03:01;103441.16;;;14.35;43.37
30302;BME280;17111;52.130;5.028;2024-01-11T01:05:27;103443.19;;;14.29;42.46
30302;BME280;17111;52.130;5.028;2024-01-11T01:07:54;103444.25;;;14.25;42.89
30302;BME280;17111;52.130;5.028;2024-01-11T01:10:21;103444.53;;;14.19;43.46
30302;BME280;17111;52.130;5.028;2024-01-11T01:12:47;103443.78;;;14.16;43.29
30302;BME280;17111;52.130;5.028;2024-01-11T01:15:14;103450.91;;;14.15;43.74
30302;BME280;17111;52.130;5.028;2024-01-11T01:17:41;103446.25;;;14.20;43.21
30302;BME280;17111;52.130;5.028;2024-01-11T01:20:09;103452.03;;;14.30;43.54
30302;BME280;17111;52.130;5.028;2024-01-11T01:22:36;103449.78;;;14.41;42.78
30302;BME280;17111;52.130;5.028;2024-01-11T01:25:03;103450.09;;;14.55;43.37
30302;BME280;17111;52.130;5.028;2024-01-11T01:27:30;103451.28;;;14.69;42.82
30302;BME280;17111;52.130;5.028;2024-01-11T01:29:57;103454.34;;;14.80;42.02
30302;BME280;17111;52.130;5.028;2024-01-11T01:32:23;103453.94;;;14.89;42.14
30302;BME280;17111;52.130;5.028;2024-01-11T01:34:50;103462.47;;;14.97;42.00
30302;BME280;17111;52.130;5.028;2024-01-11T01:37:17;103460.53;;;15.01;42.04
30302;BME280;17111;52.130;5.028;2024-01-11T01:39:43;103467.69;;;15.00;42.15
30302;BME280;17111;52.130;5.028;2024-01-11T01:42:10;103454.53;;;14.96;41.56
30302;BME280;17111;52.130;5.028;2024-01-11T01:44:36;103463.63;;;14.92;41.79
30302;BME280;17111;52.130;5.028;2024-01-11T01:47:04;103456.69;;;14.88;41.88
30302;BME280;17111;52.130;5.028;2024-01-11T01:49:31;103455.75;;;14.89;41.91
30302;BME280;17111;52.130;5.028;2024-01-11T01:51:58;103468.16;;;14.90;41.99
30302;BME280;17111;52.130;5.028;2024-01-11T01:54:25;103469.09;;;14.89;42.26
30302;BME280;17111;52.130;5.028;2024-01-11T01:56:52;103464.00;;;14.82;41.63
30302;BME280;17111;52.130;5.028;2024-01-11T01:59:20;103463.50;;;14.74;42.22
30302;BME280;17111;52.130;5.028;2024-01-11T02:01:48;103464.84;;;14.64;41.86
30302;BME280;17111;52.130;5.028;2024-01-11T02:04:15;103466.97;;;14.56;42.71
30302;BME280;17111;52.130;5.028;2024-01-11T02:06:46;103464.66;;;14.47;42.90
30302;BME280;17111;52.130;5.028;2024-01-11T02:09:13;103467.72;;;14.38;42.21
30302;BME280;17111;52.130;5.028;2024-01-11T02:11:41;103462.84;;;14.27;42.95
30302;BME280;17111;52.130;5.028;2024-01-11T02:14:09;103469.44;;;14.18;42.39
30302;BME280;17111;52.130;5.028;2024-01-11T02:16:37;103474.22;;;14.10;43.24
30302;BME280;17111;52.130;5.028;2024-01-11T02:19:07;103479.13;;;13.99;43.65
30302;BME280;17111;52.130;5.028;2024-01-11T02:21:34;103491.03;;;13.90;43.15
30302;BME280;17111;52.130;5.028;2024-01-11T02:24:03;103483.47;;;13.79;43.38
30302;BME280;17111;52.130;5.028;2024-01-11T02:26:30;103490.97;;;13.70;43.63
30302;BME280;17111;52.130;5.028;2024-01-11T02:28:57;103483.16;;;13.65;43.85
30302;BME280;17111;52.130;5.028;2024-01-11T02:31:24;103475.81;;;13.70;44.14
30302;BME280;17111;52.130;5.028;2024-01-11T02:33:52;103469.34;;;13.77;43.25
30302;BME280;17111;52.130;5.028;2024-01-11T02:36:20;103469.69;;;13.90;43.59
30302;BME280;17111;52.130;5.028;2024-01-11T02:38:48;103469.94;;;14.06;43.07
30302;BME280;17111;52.130;5.028;2024-01-11T02:41:18;103477.31;;;14.21;42.98
30302;BME280;17111;52.130;5.028;2024-01-11T02:43:48;103466.88;;;14.37;43.06
30302;BME280;17111;52.130;5.028;2024-01-11T02:46:17;103467.19;;;14.51;42.77
30302;BME280;17111;52.130;5.028;2024-01-11T02:48:44;103463.91;;;14.65;42.00
30302;BME280;17111;52.130;5.028;2024-01-11T02:51:11;103474.13;;;14.76;41.96
30302;BME280;17111;52.130;5.028;2024-01-11T02:53:37;103478.19;;;14.85;41.62
30302;BME280;17111;52.130;5.028;2024-01-11T02:56:04;103477.09;;;14.89;42.12
30302;BME280;17111;52.130;5.028;2024-01-11T02:58:31;103469.22;;;14.86;41.84
30302;BME280;17111;52.130;5.028;2024-01-11T03:00:58;103467.53;;;14.83;42.15
30302;BME280;17111;52.130;5.028;2024-01-11T03:03:24;103449.03;;;14.80;42.47
30302;BME280;17111;52.130;5.028;2024-01-11T03:05:51;103462.41;;;14.78;41.77
30302;BME280;17111;52.130;5.028;2024-01-11T03:08:18;103467.72;;;14.80;42.01
30302;BME280;17111;52.130;5.028;2024-01-11T03:10:44;103464.97;;;14.81;41.75
30302;BME280;17111;52.130;5.028;2024-01-11T03:13:11;103464.19;;;14.79;42.13
30302;BME280;17111;52.130;5.028;2024-01-11T03:15:39;103470.59;;;14.75;41.86
30302;BME280;17111;52.130;5.028;2024-01-11T03:18:06;103468.28;;;14.66;41.58
30302;BME280;17111;52.130;5.028;2024-01-11T03:20:32;103471.31;;;14.59;42.09
30302;BME280;17111;52.130;5.028;2024-01-11T03:22:59;103472.53;;;14.51;42.66
30302;BME280;17111;52.130;5.028;2024-01-11T03:25:26;103478.19;;;14.42;42.47
30302;BME280;17111;52.130;5.028;2024-01-11T03:27:52;103490.94;;;14.36;42.21
30302;BME280;17111;52.130;5.028;2024-01-11T03:30:19;103484.19;;;14.27;42.13
30302;BME280;17111;52.130;5.028;2024-01-11T03:32:46;103477.44;;;14.18;42.88
30302;BME280;17111;52.130;5.028;2024-01-11T03:35:13;103491.09;;;14.11;42.60
30302;BME280;17111;52.130;5.028;2024-01-11T03:37:39;103489.66;;;14.02;42.91
30302;BME280;17111;52.130;5.028;2024-01-11T03:40:06;103488.16;;;13.95;42.87
30302;BME280;17111;52.130;5.028;2024-01-11T03:42:33;103487.75;;;13.83;43.41
30302;BME280;17111;52.130;5.028;2024-01-11T03:45:00;103481.59;;;13.81;43.47
30302;BME280;17111;52.130;5.028;2024-01-11T03:47:26;103481.41;;;13.86;43.09
30302;BME280;17111;52.130;5.028;2024-01-11T03:49:53;103490.91;;;13.93;43.56
30302;BME280;17111;52.130;5.028;2024-01-11T03:52:20;103484.22;;;14.05;43.42
30302;BME280;17111;52.130;5.028;2024-01-11T03:54:46;103484.53;;;14.19;42.85
30302;BME280;17111;52.130;5.028;2024-01-11T03:57:13;103483.75;;;14.38;42.66
30302;BME280;17111;52.130;5.028;2024-01-11T03:59:40;103474.25;;;14.52;42.40
30302;BME280;17111;52.130;5.028;2024-01-11T04:02:07;103472.00;;;14.64;42.59
30302;BME280;17111;52.130;5.028;2024-01-11T04:04:34;103476.78;;;14.76;42.57
30302;BME280;17111;52.130;5.028;2024-01-11T04:07:01;103484.38;;;14.85;41.93
30302;BME280;17111;52.130;5.028;2024-01-11T04:09:27;103491.25;;;14.91;41.45
30302;BME280;17111;52.130;5.028;2024-01-11T04:11:54;103499.25;;;14.91;41.73
30302;BME280;17111;52.130;5.028;2024-01-11T04:14:20;103503.84;;;14.87;41.83
30302;BME280;17111;52.130;5.028;2024-01-11T04:16:47;103499.53;;;14.85;41.84
30302;BME280;17111;52.130;5.028;2024-01-11T04:19:14;103497.94;;;14.80;41.49
30302;BME280;17111;52.130;5.028;2024-01-11T04:21:42;103508.75;;;14.77;41.54
30302;BME280;17111;52.130;5.028;2024-01-11T04:24:08;103514.09;;;14.77;42.10
30302;BME280;17111;52.130;5.028;2024-01-11T04:26:35;103516.75;;;14.77;41.59
30302;BME280;17111;52.130;5.028;2024-01-11T04:29:02;103519.56;;;14.74;41.99
30302;BME280;17111;52.130;5.028;2024-01-11T04:31:28;103507.41;;;14.67;41.48
30302;BME280;17111;52.130;5.028;2024-01-11T04:33:55;103509.53;;;14.59;41.96
30302;BME280;17111;52.130;5.028;2024-01-11T04:36:22;103514.28;;;14.52;41.54
30302;BME280;17111;52.130;5.028;2024-01-11T04:38:49;103530.66;;;14.43;42.35
30302;BME280;17111;52.130;5.028;2024-01-11T04:41:15;103530.03;;;14.37;42.40
30302;BME280;17111;52.130;5.028;2024-01-11T04:43:44;103534.88;;;14.27;42.42
30302;BME280;17111;52.130;5.028;2024-01-11T04:46:18;103536.13;;;14.18;42.36
30302;BME280;17111;52.130;5.028;2024-01-11T04:48:45;103527.50;;;14.12;42.70
30302;BME280;17111;52.130;5.028;2024-01-11T04:51:12;103525.16;;;14.04;42.78
30302;BME280;17111;52.130;5.028;2024-01-11T04:53:40;103528.25;;;13.93;43.10
30302;BME280;17111;52.130;5.028;2024-01-11T04:56:07;103531.88;;;13.91;43.16
30302;BME280;17111;52.130;5.028;2024-01-11T04:58:35;103532.72;;;13.93;43.30
30302;BME280;17111;52.130;5.028;2024-01-11T05:01:05;103524.31;;;14.02;43.40
30302;BME280;17111;52.130;5.028;2024-01-11T05:03:32;103534.47;;;14.16;42.57
30302;BME280;17111;52.130;5.028;2024-01-11T05:05:59;103531.09;;;14.32;43.04
30302;BME280;17111;52.130;5.028;2024-01-11T05:08:26;103526.94;;;14.47;42.56
30302;BME280;17111;52.130;5.028;2024-01-11T05:10:53;103531.78;;;14.60;41.97
30302;BME280;17111;52.130;5.028;2024-01-11T05:13:20;103528.63;;;14.70;41.75
30302;BME280;17111;52.130;5.028;2024-01-11T05:15:46;103514.91;;;14.79;41.70
30302;BME280;17111;52.130;5.028;2024-01-11T05:18:14;103510.13;;;14.86;41.47
30302;BME280;17111;52.130;5.028;2024-01-11T05:20:40;103518.75;;;14.93;41.39
30302;BME280;17111;52.130;5.028;2024-01-11T05:23:07;103517.94;;;14.91;41.50
30302;BME280;17111;52.130;5.028;2024-01-11T05:25:34;103517.28;;;14.86;41.73
30302;BME280;17111;52.130;5.028;2024-01-11T05:28:02;103521.88;;;14.82;41.82
30302;BME280;17111;52.130;5.028;2024-01-11T05:30:30;103518.34;;;14.81;41.39
30302;BME280;17111;52.130;5.028;2024-01-11T05:32:57;103521.09;;;14.80;42.04
30302;BME280;17111;52.130;5.028;2024-01-11T05:35:25;103517.63;;;14.78;41.69
30302;BME280;17111;52.130;5.028;2024-01-11T05:37:53;103515.03;;;14.76;41.87
30302;BME280;17111;52.130;5.028;2024-01-11T05:40:23;103521.31;;;14.75;42.06
30302;BME280;17111;52.130;5.028;2024-01-11T05:42:50;103506.19;;;14.74;41.90
30302;BME280;17111;52.130;5.028;2024-01-11T05:45:16;103506.19;;;14.74;41.40
30302;BME280;17111;52.130;5.028;2024-01-11T05:47:49;103494.66;;;14.74;41.55
30302;BME280;17111;52.130;5.028;2024-01-11T05:50:16;103509.91;;;14.72;41.21
30302;BME280;17111;52.130;5.028;2024-01-11T05:52:43;103515.56;;;14.64;42.08
30302;BME280;17111;52.130;5.028;2024-01-11T05:55:10;103526.59;;;14.55;42.04
30302;BME280;17111;52.130;5.028;2024-01-11T05:57:36;103528.56;;;14.51;41.74
30302;BME280;17111;52.130;5.028;2024-01-11T06:00:04;103515.16;;;14.53;42.19
30302;BME280;17111;52.130;5.028;2024-01-11T06:02:31;103513.97;;;14.60;41.53
30302;BME280;17111;52.130;5.028;2024-01-11T06:04:58;103525.91;;;14.72;41.65
30302;BME280;17111;52.130;5.028;2024-01-11T06:07:25;103537.03;;;14.81;42.11
30302;BME280;17111;52.130;5.028;2024-01-11T06:09:51;103533.19;;;14.89;41.25
30302;BME280;17111;52.130;5.028;2024-01-11T06:12:18;103537.31;;;14.96;40.94
30302;BME280;17111;52.130;5.028;2024-01-11T06:14:44;103546.84;;;15.01;40.99
30302;BME280;17111;52.130;5.028;2024-01-11T06:17:11;103549.31;;;15.06;41.08
30302;BME280;17111;52.130;5.028;2024-01-11T06:19:38;103558.34;;;15.03;40.94
30302;BME280;17111;52.130;5.028;2024-01-11T06:22:05;103564.81;;;14.98;41.71
30302;BME280;17111;52.130;5.028;2024-01-11T06:24:32;103569.50;;;14.93;41.25
30302;BME280;17111;52.130;5.028;2024-01-11T06:26:58;103564.38;;;14.88;41.09
30302;BME280;17111;52.130;5.028;2024-01-11T06:29:25;103590.25;;;14.86;41.40
30302;BME280;17111;52.130;5.028;2024-01-11T06:31:51;103595.72;;;14.83;41.24
30302;BME280;17111;52.130;5.028;2024-01-11T06:34:18;103615.41;;;14.80;41.47
30302;BME280;17111;52.130;5.028;2024-01-11T06:36:44;103619.16;;;14.76;41.65
30302;BME280;17111;52.130;5.028;2024-01-11T06:39:11;103624.63;;;14.73;41.67
30302;BME280;17111;52.130;5.028;2024-01-11T06:41:39;103616.91;;;14.66;41.89
30302;BME280;17111;52.130;5.028;2024-01-11T06:44:06;103609.09;;;14.61;41.43
30302;BME280;17111;52.130;5.028;2024-01-11T06:46:32;103615.63;;;14.54;41.91
30302;BME280;17111;52.130;5.028;2024-01-11T06:48:59;103619.50;;;14.45;41.47
30302;BME280;17111;52.130;5.028;2024-01-11T06:51:26;103625.22;;;14.36;42.04
30302;BME280;17111;52.130;5.028;2024-01-11T06:53:52;103629.06;;;14.29;41.78
30302;BME280;17111;52.130;5.028;2024-01-11T06:56:20;103630.28;;;14.20;42.32
30302;BME280;17111;52.130;5.028;2024-01-11T06:58:47;103627.84;;;14.14;42.30
30302;BME280;17111;52.130;5.028;2024-01-11T07:01:14;103628.16;;;14.06;42.58
30302;BME280;17111;52.130;5.028;2024-01-11T07:03:41;103630.19;;;14.00;42.76
30302;BME280;17111;52.130;5.028;2024-01-11T07:06:08;103630.50;;;13.92;42.78
30302;BME280;17111;52.130;5.028;2024-01-11T07:08:36;103634.31;;;13.85;42.90
30302;BME280;17111;52.130;5.028;2024-01-11T07:11:02;103634.59;;;13.77;42.91
30302;BME280;17111;52.130;5.028;2024-01-11T07:13:30;103632.22;;;13.70;43.16
30302;BME280;17111;52.130;5.028;2024-01-11T07:15:58;103636.91;;;13.63;43.33
30302;BME280;17111;52.130;5.028;2024-01-11T07:18:25;103632.72;;;13.56;43.37
30302;BME280;17111;52.130;5.028;2024-01-11T07:20:52;103619.69;;;13.48;43.58
30302;BME280;17111;52.130;5.028;2024-01-11T07:23:19;103620.84;;;13.41;43.36
30302;BME280;17111;52.130;5.028;2024-01-11T07:25:47;103607.00;;;13.31;43.33
30302;BME280;17111;52.130;5.028;2024-01-11T07:28:13;103602.69;;;13.27;43.62
30302;BME280;17111;52.130;5.028;2024-01-11T07:30:40;103598.41;;;13.22;43.97
30302;BME280;17111;52.130;5.028;2024-01-11T07:33:07;103588.84;;;13.16;44.04
30302;BME280;17111;52.130;5.028;2024-01-11T07:35:36;103581.97;;;13.11;43.79
30302;BME280;17111;52.130;5.028;2024-01-11T07:38:03;103579.50;;;13.04;43.89
30302;BME280;17111;52.130;5.028;2024-01-11T07:40:30;103587.66;;;13.00;44.20
30302;BME280;17111;52.130;5.028;2024-01-11T07:43:01;103585.09;;;12.97;44.41
30302;BME280;17111;52.130;5.028;2024-01-11T07:45:28;103589.66;;;12.93;44.05
30302;BME280;17111;52.130;5.028;2024-01-11T07:47:54;103586.22;;;12.90;44.22
30302;BME280;17111;52.130;5.028;2024-01-11T07:50:21;103597.03;;;12.85;44.81
30302;BME280;17111;52.130;5.028;2024-01-11T07:52:47;103596.22;;;12.83;44.39
30302;BME280;17111;52.130;5.028;2024-01-11T07:55:14;103606.09;;;12.79;44.78
30302;BME280;17111;52.130;5.028;2024-01-11T07:57:41;103607.94;;;12.77;44.17
30302;BME280;17111;52.130;5.028;2024-01-11T08:00:08;103604.47;;;12.75;44.56
30302;BME280;17111;52.130;5.028;2024-01-11T08:02:35;103600.88;;;12.76;44.43
30302;BME280;17111;52.130;5.028;2024-01-11T08:05:02;103616.91;;;12.75;45.08
30302;BME280;17111;52.130;5.028;2024-01-11T08:07:29;103607.13;;;12.75;44.92
30302;BME280;17111;52.130;5.028;2024-01-11T08:09:56;103612.44;;;12.75;45.12
30302;BME280;17111;52.130;5.028;2024-01-11T08:12:23;103612.38;;;12.77;44.71
30302;BME280;17111;52.130;5.028;2024-01-11T08:14:49;103606.13;;;12.78;44.63
30302;BME280;17111;52.130;5.028;2024-01-11T08:17:16;103614.09;;;12.79;45.23
30302;BME280;17111;52.130;5.028;2024-01-11T08:19:43;103605.16;;;12.80;44.77
30302;BME280;17111;52.130;5.028;2024-01-11T08:22:10;103614.88;;;12.81;45.24
30302;BME280;17111;52.130;5.028;2024-01-11T08:24:37;103607.75;;;12.83;44.39
30302;BME280;17111;52.130;5.028;2024-01-11T08:27:04;103609.41;;;12.86;44.42
30302;BME280;17111;52.130;5.028;2024-01-11T08:29:32;103600.53;;;12.87;44.91
30302;BME280;17111;52.130;5.028;2024-01-11T08:32:00;103607.50;;;12.90;44.91
30302;BME280;17111;52.130;5.028;2024-01-11T08:34:49;103609.16;;;12.94;44.63
30302;BME280;17111;52.130;5.028;2024-01-11T08:37:16;103609.91;;;12.97;45.09
30302;BME280;17111;52.130;5.028;2024-01-11T08:39:43;103616.88;;;13.01;44.53
30302;BME280;17111;52.130;5.028;2024-01-11T08:42:09;103624.69;;;13.06;44.89
30302;BME280;17111;52.130;5.028;2024-01-11T08:44:36;103627.09;;;13.14;44.66
30302;BME280;17111;52.130;5.028;2024-01-11T08:47:03;103633.97;;;13.21;45.24
30302;BME280;17111;52.130;5.028;2024-01-11T08:49:30;103636.38;;;13.28;45.21
30302;BME280;17111;52.130;5.028;2024-01-11T08:51:57;103647.63;;;13.37;45.08
30302;BME280;17111;52.130;5.028;2024-01-11T08:54:23;103649.97;;;13.46;44.81
30302;BME280;17111;52.130;5.028;2024-01-11T08:56:50;103658.56;;;13.54;45.13
30302;BME280;17111;52.130;5.028;2024-01-11T08:59:16;103671.66;;;13.60;45.06
30302;BME280;17111;52.130;5.028;2024-01-11T09:01:43;103668.72;;;13.68;45.43
30302;BME280;17111;52.130;5.028;2024-01-11T09:04:27;103664.00;;;13.76;45.44
30302;BME280;17111;52.130;5.028;2024-01-11T09:06:56;103671.75;;;13.82;45.84
30302;BME280;17111;52.130;5.028;2024-01-11T09:09:22;103681.31;;;13.88;45.72
30302;BME280;17111;52.130;5.028;2024-01-11T09:11:49;103677.63;;;13.92;45.46
30302;BME280;17111;52.130;5.028;2024-01-11T09:14:16;103685.47;;;13.95;45.29
30302;BME280;17111;52.130;5.028;2024-01-11T09:16:42;103686.25;;;13.98;45.97
30302;BME280;17111;52.130;5.028;2024-01-11T09:19:11;103689.66;;;14.02;45.58
30302;BME280;17111;52.130;5.028;2024-01-11T09:21:38;103682.50;;;14.04;44.97
30302;BME280;17111;52.130;5.028;2024-01-11T09:24:05;103688.59;;;14.07;45.02
30302;BME280;17111;52.130;5.028;2024-01-11T09:26:31;103684.88;;;14.12;45.11
30302;BME280;17111;52.130;5.028;2024-01-11T09:28:58;103685.66;;;14.14;44.70
30302;BME280;17111;52.130;5.028;2024-01-11T09:31:24;103690.03;;;14.16;44.75
30302;BME280;17111;52.130;5.028;2024-01-11T09:33:51;103684.72;;;14.15;44.59
30302;BME280;17111;52.130;5.028;2024-01-11T09:36:19;103689.28;;;14.13;44.33
30302;BME280;17111;52.130;5.028;2024-01-11T09:38:46;103685.84;;;14.09;44.42
30302;BME280;17111;52.130;5.028;2024-01-11T09:41:13;103695.81;;;14.04;44.48
30302;BME280;17111;52.130;5.028;2024-01-11T09:43:41;103697.78;;;13.99;43.97
30302;BME280;17111;52.130;5.028;2024-01-11T09:46:10;103706.81;;;13.95;44.56
30302;BME280;17111;52.130;5.028;2024-01-11T09:48:38;103709.66;;;13.90;44.27
30302;BME280;17111;52.130;5.028;2024-01-11T09:51:09;103708.97;;;13.85;44.25
30302;BME280;17111;52.130;5.028;2024-01-11T09:53:38;103707.25;;;13.82;44.38
30302;BME280;17111;52.130;5.028;2024-01-11T09:56:07;103705.63;;;13.78;44.51
30302;BME280;17111;52.130;5.028;2024-01-11T09:58:36;103698.66;;;13.74;44.63
30302;BME280;17111;52.130;5.028;2024-01-11T10:01:09;103703.22;;;13.72;44.98
30302;BME280;17111;52.130;5.028;2024-01-11T10:03:39;103706.91;;;13.68;44.73
30302;BME280;17111;52.130;5.028;2024-01-11T10:06:06;103707.88;;;13.66;45.00
30302;BME280;17111;52.130;5.028;2024-01-11T10:08:33;103699.94;;;13.64;45.06
30302;BME280;17111;52.130;5.028;2024-01-11T10:11:00;103691.13;;;13.62;44.77
30302;BME280;17111;52.130;5.028;2024-01-11T10:13:28;103694.72;;;13.61;45.03
30302;BME280;17111;52.130;5.028;2024-01-11T10:18:34;103703.69;;;13.58;45.09
30302;BME280;17111;52.130;5.028;2024-01-11T10:21:01;103710.81;;;13.58;45.19
30302;BME280;17111;52.130;5.028;2024-01-11T10:23:28;103704.63;;;13.57;45.12
30302;BME280;17111;52.130;5.028;2024-01-11T10:25:58;103706.47;;;13.55;45.06
30302;BME280;17111;52.130;5.028;2024-01-11T10:28:25;103699.34;;;13.56;45.04
30302;BME280;17111;52.130;5.028;2024-01-11T10:30:53;103699.28;;;13.57;45.41
30302;BME280;17111;52.130;5.028;2024-01-11T10:33:20;103700.28;;;13.55;45.04
30302;BME280;17111;52.130;5.028;2024-01-11T10:35:48;103695.81;;;13.55;45.34
30302;BME280;17111;52.130;5.028;2024-01-11T10:38:18;103694.03;;;13.56;45.43
30302;BME280;17111;52.130;5.028;2024-01-11T10:40:45;103696.69;;;13.56;45.10
30302;BME280;17111;52.130;5.028;2024-01-11T10:43:14;103710.94;;;13.55;45.13
30302;BME280;17111;52.130;5.028;2024-01-11T10:45:45;103712.78;;;13.53;45.65
30302;BME280;17111;52.130;5.028;2024-01-11T10:48:15;103714.34;;;13.58;45.15
30302;BME280;17111;52.130;5.028;2024-01-11T10:50:43;103716.13;;;13.58;45.63
30302;BME280;17111;52.130;5.028;2024-01-11T10:55:48;103717.06;;;13.57;45.75
30302;BME280;17111;52.130;5.028;2024-01-11T10:58:18;103713.53;;;13.56;45.47
30302;BME280;17111;52.130;5.028;2024-01-11T11:00:46;103721.53;;;13.56;45.52
30302;BME280;17111;52.130;5.028;2024-01-11T11:03:15;103729.53;;;13.56;45.58
30302;BME280;17111;52.130;5.028;2024-01-11T11:05:43;103729.53;;;13.56;45.79
30302;BME280;17111;52.130;5.028;2024-01-11T11:08:11;103736.66;;;13.56;45.55
30302;BME280;17111;52.130;5.028;2024-01-11T11:10:39;103730.47;;;13.55;45.57
30302;BME280;17111;52.130;5.028;2024-01-11T11:13:08;103727.81;;;13.55;45.68
30302;BME280;17111;52.130;5.028;2024-01-11T11:15:36;103744.66;;;13.56;45.71
30302;BME280;17111;52.130;5.028;2024-01-11T11:18:04;103746.44;;;13.55;45.65
30302;BME280;17111;52.130;5.028;2024-01-11T11:20:32;103743.78;;;13.55;45.61
30302;BME280;17111;52.130;5.028;2024-01-11T11:23:09;103736.69;;;13.54;45.71
30302;BME280;17111;52.130;5.028;2024-01-11T11:25:43;103736.66;;;13.56;45.85
30302;BME280;17111;52.130;5.028;2024-01-11T11:28:12;103736.69;;;13.54;45.72
30302;BME280;17111;52.130;5.028;2024-01-11T11:30:41;103722.47;;;13.55;45.82
30302;BME280;17111;52.130;5.028;2024-01-11T11:33:16;103724.28;;;13.55;45.56
30302;BME280;17111;52.130;5.028;2024-01-11T11:35:46;103721.59;;;13.55;46.03
30302;BME280;17111;52.130;5.028;2024-01-11T11:38:39;103722.56;;;13.52;46.13
30302;BME280;17111;52.130;5.028;2024-01-11T11:41:06;103720.66;;;13.56;46.14
30302;BME280;17111;52.130;5.028;2024-01-11T11:43:33;103720.66;;;13.56;45.93
30302;BME280;17111;52.130;5.028;2024-01-11T11:46:00;103711.81;;;13.55;45.79
30302;BME280;17111;52.130;5.028;2024-01-11T11:51:09;103705.63;;;13.55;45.90
30302;BME280;17111;52.130;5.028;2024-01-11T11:53:37;103697.56;;;13.56;46.05
30302;BME280;17111;52.130;5.028;2024-01-11T11:56:04;103696.69;;;13.56;45.86
30302;BME280;17111;52.130;5.028;2024-01-11T11:58:33;103701.09;;;13.57;46.03
30302;BME280;17111;52.130;5.028;2024-01-11T12:01:01;103690.44;;;13.57;45.81
30302;BME280;17111;52.130;5.028;2024-01-11T12:05:57;103683.25;;;13.59;45.76
30302;BME280;17111;52.130;5.028;2024-01-11T12:08:24;103677.94;;;13.59;45.27
30302;BME280;17111;52.130;5.028;2024-01-11T12:10:51;103674.34;;;13.60;46.07
30302;BME280;17111;52.130;5.028;2024-01-11T12:13:18;103667.22;;;13.61;45.74
30302;BME280;17111;52.130;5.028;2024-01-11T12:15:46;103662.75;;;13.61;45.70
30302;BME280;17111;52.130;5.028;2024-01-11T12:18:12;103653.88;;;13.61;45.87
30302;BME280;17111;52.130;5.028;2024-01-11T12:20:39;103649.41;;;13.61;45.63
30302;BME280;17111;52.130;5.028;2024-01-11T12:23:06;103639.59;;;13.63;45.75
30302;BME280;17111;52.130;5.028;2024-01-11T12:25:33;103639.59;;;13.63;45.63
30302;BME280;17111;52.130;5.028;2024-01-11T12:27:59;103638.66;;;13.64;45.82
30302;BME280;17111;52.130;5.028;2024-01-11T12:30:27;103634.25;;;13.63;45.40
30302;BME280;17111;52.130;5.028;2024-01-11T12:32:54;103630.66;;;13.64;45.57
30302;BME280;17111;52.130;5.028;2024-01-11T12:35:21;103634.19;;;13.65;45.73
30302;BME280;17111;52.130;5.028;2024-01-11T12:37:59;103626.19;;;13.65;46.02
30302;BME280;17111;52.130;5.028;2024-01-11T12:40:26;103624.31;;;13.67;45.41
30302;BME280;17111;52.130;5.028;2024-01-11T12:42:53;103630.59;;;13.66;45.56
30302;BME280;17111;52.130;5.028;2024-01-11T12:45:20;103622.59;;;13.66;45.59
30302;BME280;17111;52.130;5.028;2024-01-11T12:47:46;103627.88;;;13.67;45.53
30302;BME280;17111;52.130;5.028;2024-01-11T12:50:14;103626.13;;;13.66;45.47
30302;BME280;17111;52.130;5.028;2024-01-11T12:52:42;103623.41;;;13.68;45.63
30302;BME280;17111;52.130;5.028;2024-01-11T12:55:18;103608.34;;;13.67;45.98
30302;BME280;17111;52.130;5.028;2024-01-11T12:57:45;103616.28;;;13.68;46.04
30302;BME280;17111;52.130;5.028;2024-01-11T13:00:13;103617.16;;;13.69;45.64
30302;BME280;17111;52.130;5.028;2024-01-11T13:02:40;103615.44;;;13.68;45.43